Time;durP1;ratioP1;P1;durP2;ratioP2;P2;SDS_P1;SDS_P2;PMS_P1;PMS_P2;Temp;Humidity;BMP_temperature;BMP_pressure;BME280_temperature;BME280_humidity;BME280_pressure;Samples;Min_cycle;Max_cycle;Signal;HPM_P1;HPM_P2
2024/01/18 00:00:40;;;;;;;49.17;30.13;;;;;;;;;;5035392;28;20025;-49
2024/01/18 00:03:06;;;;;;;48.83;30.00;;;;;;;;;;5053389;28;20142;-49
2024/01/18 00:05:33;;;;;;;52.00;30.92;;;;;;;;;;5035002;28;20175;-51
2024/01/18 00:07:59;;;;;;;47.63;28.83;;;;;;;;;;5053192;28;20503;-51
2024/01/18 00:10:28;;;;;;;48.13;29.73;;;;;;;;;;5018831;28;20033;-51
2024/01/18 00:12:55;;;;;;;45.72;28.48;;;;;;;;;;5034796;28;20398;-49
2024/01/18 00:15:21;;;;;;;47.55;30.23;;;;;;;;;;5052594;28;20469;-49
2024/01/18 00:17:48;;;;;;;49.00;29.77;;;;;;;;;;5053007;28;20025;-49
2024/01/18 00:20:14;;;;;;;46.97;29.75;;;;;;;;;;5053076;28;20044;-54
2024/01/18 00:22:40;;;;;;;46.88;28.90;;;;;;;;;;5052664;28;20111;-49
2024/01/18 00:25:07;;;;;;;47.10;30.83;;;;;;;;;;5034936;28;20033;-49
2024/01/18 00:27:33;;;;;;;57.08;33.75;;;;;;;;;;5052803;28;20037;-49
2024/01/18 00:29:59;;;;;;;51.50;32.55;;;;;;;;;;5052848;28;20384;-49
2024/01/18 00:32:25;;;;;;;51.88;31.00;;;;;;;;;;5034401;28;20403;-50
2024/01/18 00:34:52;;;;;;;49.00;30.27;;;;;;;;;;5034605;28;20087;-49
2024/01/18 00:37:18;;;;;;;52.50;31.85;;;;;;;;;;5052531;28;20021;-52
2024/01/18 00:39:45;;;;;;;53.65;32.28;;;;;;;;;;5035055;28;20363;-54
2024/01/18 00:42:11;;;;;;;51.00;31.63;;;;;;;;;;5034580;28;20048;-51
2024/01/18 00:44:37;;;;;;;49.67;30.57;;;;;;;;;;5052282;28;20116;-49
2024/01/18 00:47:03;;;;;;;55.85;34.63;;;;;;;;;;5034513;28;20029;-50
2024/01/18 00:49:29;;;;;;;53.57;31.60;;;;;;;;;;5034323;28;20383;-48
2024/01/18 00:51:56;;;;;;;56.35;33.10;;;;;;;;;;5034361;28;20498;-52
2024/01/18 00:54:22;;;;;;;60.00;33.67;;;;;;;;;;5052090;28;20094;-48
2024/01/18 00:56:48;;;;;;;60.10;34.67;;;;;;;;;;5052239;28;20062;-50
2024/01/18 00:59:14;;;;;;;62.55;34.33;;;;;;;;;;5034326;28;20521;-48
2024/01/18 01:01:40;;;;;;;71.35;38.17;;;;;;;;;;5052206;28;20025;-48
2024/01/18 01:04:07;;;;;;;79.40;39.05;;;;;;;;;;5051818;28;20391;-55
2024/01/18 01:06:33;;;;;;;67.90;37.97;;;;;;;;;;5034029;28;20106;-53
2024/01/18 01:08:59;;;;;;;70.85;36.85;;;;;;;;;;5052152;28;20039;-53
2024/01/18 01:11:25;;;;;;;67.97;36.67;;;;;;;;;;5051795;28;20037;-49
2024/01/18 01:13:51;;;;;;;59.10;34.95;;;;;;;;;;5051678;28;20079;-53
2024/01/18 01:16:19;;;;;;;66.60;40.75;;;;;;;;;;5033561;28;20487;-53
2024/01/18 01:18:45;;;;;;;63.63;35.25;;;;;;;;;;5034208;28;20024;-56
2024/01/18 01:21:11;;;;;;;65.03;37.30;;;;;;;;;;5051479;28;20025;-51
2024/01/18 01:23:41;;;;;;;71.38;40.08;;;;;;;;;;5051820;28;20024;-49
2024/01/18 01:26:10;;;;;;;70.28;38.88;;;;;;;;;;5051834;28;20025;-51
2024/01/18 01:28:37;;;;;;;65.63;35.97;;;;;;;;;;5051913;28;20029;-49
2024/01/18 01:31:03;;;;;;;69.38;39.05;;;;;;;;;;5051742;28;20282;-51
2024/01/18 01:33:29;;;;;;;61.60;38.23;;;;;;;;;;5033361;28;20041;-57
2024/01/18 01:35:56;;;;;;;68.45;40.90;;;;;;;;;;5033414;28;20040;-53
2024/01/18 01:38:22;;;;;;;66.20;36.20;;;;;;;;;;5051206;28;20077;-51
2024/01/18 01:40:48;;;;;;;58.47;35.30;;;;;;;;;;5051362;28;20391;-51
2024/01/18 01:43:16;;;;;;;63.08;35.30;;;;;;;;;;5033697;28;20036;-50
2024/01/18 01:45:43;;;;;;;59.60;35.65;;;;;;;;;;5051082;28;20398;-48
2024/01/18 01:48:09;;;;;;;56.83;34.92;;;;;;;;;;5033555;28;20033;-50
2024/01/18 01:50:36;;;;;;;58.38;35.05;;;;;;;;;;5051234;28;20473;-48
2024/01/18 01:53:02;;;;;;;;;;;;;;;;;;5052009;28;20075;-49
2024/01/18 01:55:29;;;;;;;47.20;29.90;;;;;;;;;;5051169;28;19912;-50
2024/01/18 01:57:55;;;;;;;54.53;32.87;;;;;;;;;;5033860;28;20075;-49
2024/01/18 02:00:21;;;;;;;48.75;30.17;;;;;;;;;;5033344;28;20270;-50
2024/01/18 02:02:49;;;;;;;47.73;29.30;;;;;;;;;;5051140;28;20506;-57
2024/01/18 02:05:15;;;;;;;45.70;29.60;;;;;;;;;;5051217;28;20761;-53
2024/01/18 02:07:41;;;;;;;44.20;28.38;;;;;;;;;;5051278;28;20499;-52
2024/01/18 02:10:08;;;;;;;42.42;27.48;;;;;;;;;;5051412;28;20111;-49
2024/01/18 02:12:34;;;;;;;42.53;28.27;;;;;;;;;;5051326;28;20033;-53
2024/01/18 02:15:00;;;;;;;40.37;26.00;;;;;;;;;;5051112;28;20132;-50
2024/01/18 02:17:27;;;;;;;37.40;25.17;;;;;;;;;;5051362;28;20483;-51
2024/01/18 02:19:53;;;;;;;42.00;26.08;;;;;;;;;;5051270;28;20132;-50
2024/01/18 02:22:20;;;;;;;39.30;24.92;;;;;;;;;;5033372;28;20043;-49
2024/01/18 02:24:50;;;;;;;36.58;24.65;;;;;;;;;;5033259;28;20041;-53
2024/01/18 02:27:16;;;;;;;36.55;23.45;;;;;;;;;;5051326;28;20498;-51
2024/01/18 02:29:43;;;;;;;33.70;22.27;;;;;;;;;;5054571;28;20044;-54
2024/01/18 02:32:10;;;;;;;33.72;23.92;;;;;;;;;;5037381;28;20032;-50
2024/01/18 02:34:39;;;;;;;35.28;23.13;;;;;;;;;;5037111;28;20503;-49
2024/01/18 02:37:08;;;;;;;33.58;23.15;;;;;;;;;;5054924;28;20104;-50
2024/01/18 02:39:34;;;;;;;34.17;22.48;;;;;;;;;;5055024;28;20032;-54
2024/01/18 02:42:02;;;;;;;36.53;22.85;;;;;;;;;;5054756;28;20183;-52
2024/01/18 02:44:28;;;;;;;33.08;22.05;;;;;;;;;;5036781;28;20056;-51
2024/01/18 02:46:55;;;;;;;33.10;23.67;;;;;;;;;;5054785;28;20383;-56
2024/01/18 02:49:21;;;;;;;33.93;21.57;;;;;;;;;;5036803;28;20029;-53
2024/01/18 02:51:47;;;;;;;34.28;21.77;;;;;;;;;;5054740;28;20029;-53
2024/01/18 02:54:14;;;;;;;34.70;22.77;;;;;;;;;;5054514;28;20040;-51
2024/01/18 02:56:40;;;;;;;32.40;21.75;;;;;;;;;;5054668;28;20119;-48
2024/01/18 02:59:07;;;;;;;38.50;23.65;;;;;;;;;;5036764;28;20468;-52
2024/01/18 03:01:33;;;;;;;38.87;24.90;;;;;;;;;;5054846;28;20466;-53
2024/01/18 03:03:59;;;;;;;37.70;23.90;;;;;;;;;;5054305;28;20271;-52
2024/01/18 03:06:25;;;;;;;36.58;22.15;;;;;;;;;;5053892;28;20037;-51
2024/01/18 03:08:51;;;;;;;42.03;23.43;;;;;;;;;;5034919;28;20039;-53
2024/01/18 03:11:18;;;;;;;38.67;22.08;;;;;;;;;;5035828;28;20059;-50
2024/01/18 03:13:44;;;;;;;40.25;21.92;;;;;;;;;;5036083;28;20203;-52
2024/01/18 03:16:12;;;;;;;37.60;21.45;;;;;;;;;;5054147;28;20021;-49
2024/01/18 03:18:38;;;;;;;39.90;22.05;;;;;;;;;;5054390;28;20029;-49
2024/01/18 03:21:07;;;;;;;38.27;20.80;;;;;;;;;;5036485;28;20395;-51
2024/01/18 03:23:33;;;;;;;33.88;19.73;;;;;;;;;;5054044;28;20025;-54
2024/01/18 03:26:00;;;;;;;36.70;19.70;;;;;;;;;;5054261;28;20024;-50
2024/01/18 03:28:26;;;;;;;30.38;18.13;;;;;;;;;;5054171;28;20124;-53
2024/01/18 03:30:53;;;;;;;42.15;20.92;;;;;;;;;;5054073;28;20029;-49
2024/01/18 03:33:19;;;;;;;33.90;19.08;;;;;;;;;;5053992;28;20108;-50
2024/01/18 03:35:45;;;;;;;36.72;20.02;;;;;;;;;;5036033;28;20029;-49
2024/01/18 03:38:11;;;;;;;33.70;19.05;;;;;;;;;;5054099;28;20036;-51
2024/01/18 03:40:38;;;;;;;32.50;18.02;;;;;;;;;;5053261;28;20048;-57
2024/01/18 03:43:04;;;;;;;34.40;19.20;;;;;;;;;;5035961;28;20033;-49
2024/01/18 03:45:31;;;;;;;29.10;16.75;;;;;;;;;;5053923;28;20116;-51
2024/01/18 03:47:57;;;;;;;25.60;14.80;;;;;;;;;;5053784;28;20029;-53
2024/01/18 03:50:24;;;;;;;29.45;16.83;;;;;;;;;;5053792;28;20051;-54
2024/01/18 03:52:50;;;;;;;23.73;15.35;;;;;;;;;;5053433;28;20033;-56
2024/01/18 03:55:16;;;;;;;23.77;15.23;;;;;;;;;;5052769;28;20032;-55
2024/01/18 03:57:42;;;;;;;24.30;14.60;;;;;;;;;;5053428;28;20036;-52
2024/01/18 04:00:14;;;;;;;23.33;14.30;;;;;;;;;;5053156;28;20021;-51
2024/01/18 04:02:42;;;;;;;23.55;13.43;;;;;;;;;;5053096;28;20071;-53
2024/01/18 04:05:09;;;;;;;19.63;13.20;;;;;;;;;;5053170;28;20049;-50
2024/01/18 04:07:37;;;;;;;18.87;11.00;;;;;;;;;;5035667;28;20044;-49
2024/01/18 04:10:04;;;;;;;14.20;10.77;;;;;;;;;;5052600;28;20044;-53
2024/01/18 04:12:30;;;;;;;16.20;10.90;;;;;;;;;;5052078;28;20037;-55
2024/01/18 04:14:57;;;;;;;15.60;10.37;;;;;;;;;;5053009;28;20476;-53
2024/01/18 04:17:23;;;;;;;14.45;10.98;;;;;;;;;;5053108;28;20067;-51
2024/01/18 04:19:49;;;;;;;12.60;9.15;;;;;;;;;;5035116;28;20557;-51
2024/01/18 04:22:16;;;;;;;16.55;10.68;;;;;;;;;;5035516;28;20037;-53
2024/01/18 04:24:42;;;;;;;14.57;9.98;;;;;;;;;;5052655;28;20441;-48
2024/01/18 04:27:08;;;;;;;14.03;10.17;;;;;;;;;;5035594;28;20478;-55
2024/01/18 04:29:34;;;;;;;16.55;11.18;;;;;;;;;;5052689;28;20200;-54
2024/01/18 04:32:00;;;;;;;14.55;10.43;;;;;;;;;;5052557;28;20033;-55
2024/01/18 04:34:26;;;;;;;14.80;10.07;;;;;;;;;;5052676;28;20074;-55
2024/01/18 04:36:53;;;;;;;15.10;10.18;;;;;;;;;;5034976;28;20040;-59
2024/01/18 04:39:19;;;;;;;14.50;10.63;;;;;;;;;;5052562;28;20483;-52
2024/01/18 04:41:45;;;;;;;11.25;8.20;;;;;;;;;;5069472;22;20048;-49
2024/01/18 04:44:11;;;;;;;16.00;10.20;;;;;;;;;;5014361;28;20032;-51
2024/01/18 04:46:37;;;;;;;16.53;11.20;;;;;;;;;;5024766;28;20384;-49
2024/01/18 04:49:04;;;;;;;16.27;10.98;;;;;;;;;;5031170;28;20046;-49
2024/01/18 04:51:30;;;;;;;13.95;11.02;;;;;;;;;;5030825;28;20137;-56
2024/01/18 04:53:56;;;;;;;15.05;11.27;;;;;;;;;;5051988;28;20029;-52
2024/01/18 04:56:22;;;;;;;16.02;11.35;;;;;;;;;;5052446;28;20057;-48
2024/01/18 04:58:48;;;;;;;13.57;10.30;;;;;;;;;;5052300;28;20406;-55
2024/01/18 05:01:15;;;;;;;16.33;11.45;;;;;;;;;;5052410;28;20305;-53
2024/01/18 05:03:41;;;;;;;17.55;11.35;;;;;;;;;;5034409;28;20048;-54
2024/01/18 05:06:09;;;;;;;15.95;12.10;;;;;;;;;;5034530;28;20421;-51
2024/01/18 05:08:35;;;;;;;16.38;13.05;;;;;;;;;;5052278;28;20112;-54
2024/01/18 05:11:01;;;;;;;16.30;12.03;;;;;;;;;;5052155;28;20079;-52
2024/01/18 05:13:27;;;;;;;18.27;12.55;;;;;;;;;;5052086;28;20714;-54
2024/01/18 05:15:53;;;;;;;20.83;13.00;;;;;;;;;;5034303;28;20033;-51
2024/01/18 05:18:20;;;;;;;16.83;11.63;;;;;;;;;;5052234;28;20025;-53
2024/01/18 05:20:46;;;;;;;18.70;12.60;;;;;;;;;;5052124;28;20334;-51
2024/01/18 05:23:12;;;;;;;19.30;13.40;;;;;;;;;;5051948;28;20121;-52
2024/01/18 05:25:38;;;;;;;20.05;13.63;;;;;;;;;;5051772;28;20025;-50
2024/01/18 05:28:05;;;;;;;22.20;15.00;;;;;;;;;;5051949;28;20131;-52
2024/01/18 05:30:31;;;;;;;23.00;14.93;;;;;;;;;;5034232;28;20530;-50
2024/01/18 05:32:57;;;;;;;20.02;13.68;;;;;;;;;;5034076;28;20035;-52
2024/01/18 05:35:23;;;;;;;23.00;15.35;;;;;;;;;;5051778;28;20105;-53
2024/01/18 05:37:49;;;;;;;25.33;16.00;;;;;;;;;;5051961;28;20021;-51
2024/01/18 05:40:16;;;;;;;24.85;16.10;;;;;;;;;;5051894;28;20483;-55
2024/01/18 05:42:42;;;;;;;26.20;16.23;;;;;;;;;;5051678;28;20025;-51
2024/01/18 05:45:08;;;;;;;25.65;16.75;;;;;;;;;;5051660;28;20059;-53
2024/01/18 05:47:34;;;;;;;28.57;18.07;;;;;;;;;;5051822;28;20020;-55
2024/01/18 05:50:01;;;;;;;28.30;16.23;;;;;;;;;;5051668;28;20032;-55
2024/01/18 05:52:29;;;;;;;26.98;16.52;;;;;;;;;;5051658;28;20041;-54
2024/01/18 05:54:56;;;;;;;25.65;15.73;;;;;;;;;;5051311;28;20032;-52
2024/01/18 05:57:24;;;;;;;28.58;16.80;;;;;;;;;;5051643;28;20033;-51
2024/01/18 05:59:50;;;;;;;25.30;17.38;;;;;;;;;;5051538;28;20071;-55
2024/01/18 06:02:16;;;;;;;28.25;16.85;;;;;;;;;;5051329;28;20029;-54
2024/01/18 06:04:43;;;;;;;29.50;18.80;;;;;;;;;;5033411;28;20037;-52
2024/01/18 06:07:09;;;;;;;27.05;16.60;;;;;;;;;;5051561;28;20029;-55
2024/01/18 06:09:35;;;;;;;28.17;17.33;;;;;;;;;;5051550;28;20021;-55
2024/01/18 06:12:01;;;;;;;28.10;18.25;;;;;;;;;;5051336;28;20059;-52
2024/01/18 06:14:27;;;;;;;28.30;18.42;;;;;;;;;;5051148;28;20475;-55
2024/01/18 06:16:53;;;;;;;29.63;20.25;;;;;;;;;;5051477;28;20032;-52
2024/01/18 06:19:20;;;;;;;32.35;20.55;;;;;;;;;;5033444;28;20032;-55
2024/01/18 06:21:46;;;;;;;32.03;20.88;;;;;;;;;;5051288;28;20032;-51
2024/01/18 06:24:13;;;;;;;33.45;20.98;;;;;;;;;;5051185;28;20574;-53
2024/01/18 06:26:39;;;;;;;;;;;;;;;;;;5034019;28;20037;-52
2024/01/18 06:29:05;;;;;;;36.22;21.80;;;;;;;;;;5051377;28;19912;-55
2024/01/18 06:31:31;;;;;;;37.55;22.80;;;;;;;;;;5033587;28;20487;-54
2024/01/18 06:33:58;;;;;;;35.97;22.27;;;;;;;;;;5050977;28;20025;-51
2024/01/18 06:36:24;;;;;;;38.35;23.70;;;;;;;;;;5033426;28;20033;-53
2024/01/18 06:38:50;;;;;;;36.25;22.48;;;;;;;;;;5033403;28;20021;-52
2024/01/18 06:41:16;;;;;;;38.23;23.80;;;;;;;;;;5051051;28;20033;-50
2024/01/18 06:43:43;;;;;;;37.22;25.13;;;;;;;;;;5051022;28;20025;-52
2024/01/18 06:46:18;;;;;;;40.47;23.07;;;;;;;;;;5051149;28;20513;-52
2024/01/18 06:48:52;;;;;;;43.70;26.23;;;;;;;;;;5033257;28;20122;-54
2024/01/18 06:51:20;;;;;;;45.25;25.60;;;;;;;;;;5051007;28;20055;-54
2024/01/18 06:53:46;;;;;;;;;;;;;;;;;;5033564;28;20450;-53
2024/01/18 06:56:12;;;;;;;40.47;23.58;;;;;;;;;;5033483;28;19909;-53
2024/01/18 06:58:39;;;;;;;47.72;27.52;;;;;;;;;;5051014;28;20040;-53
2024/01/18 07:01:06;;;;;;;47.00;26.30;;;;;;;;;;5051034;28;20036;-52
2024/01/18 07:03:32;;;;;;;47.70;27.05;;;;;;;;;;5050779;28;20409;-52
2024/01/18 07:05:59;;;;;;;57.25;29.80;;;;;;;;;;5050984;28;20075;-54
2024/01/18 07:08:25;;;;;;;63.67;32.55;;;;;;;;;;5051015;28;20036;-54
2024/01/18 07:10:51;;;;;;;65.55;31.70;;;;;;;;;;5033172;28;20444;-55
2024/01/18 07:13:17;;;;;;;64.95;31.60;;;;;;;;;;5033099;28;20406;-55
2024/01/18 07:15:43;;;;;;;63.45;32.13;;;;;;;;;;5053635;28;20083;-53
2024/01/18 07:18:09;;;;;;;62.58;33.95;;;;;;;;;;5054473;28;20025;-50
2024/01/18 07:20:36;;;;;;;61.42;31.38;;;;;;;;;;5054502;28;20489;-53
2024/01/18 07:23:02;;;;;;;59.92;31.67;;;;;;;;;;5054333;28;20075;-52
2024/01/18 07:25:28;;;;;;;62.33;30.20;;;;;;;;;;5054222;28;20447;-53
2024/01/18 07:27:54;;;;;;;62.40;30.13;;;;;;;;;;5036475;28;20471;-53
2024/01/18 07:30:21;;;;;;;57.67;30.80;;;;;;;;;;5054289;28;20059;-51
2024/01/18 07:32:48;;;;;;;68.13;32.42;;;;;;;;;;5054115;28;20401;-51
2024/01/18 07:35:14;;;;;;;62.53;32.03;;;;;;;;;;5035983;28;20455;-53
2024/01/18 07:37:40;;;;;;;65.10;32.40;;;;;;;;;;5054144;28;20020;-53
2024/01/18 07:40:07;;;;;;;69.60;33.65;;;;;;;;;;5054125;28;20260;-53
2024/01/18 07:42:33;;;;;;;71.35;33.40;;;;;;;;;;5053772;28;20487;-52
2024/01/18 07:44:59;;;;;;;72.75;38.15;;;;;;;;;;5035956;28;20041;-54
2024/01/18 07:47:26;;;;;;;76.97;37.67;;;;;;;;;;5053871;28;20104;-53
2024/01/18 07:49:52;;;;;;;94.03;40.33;;;;;;;;;;5053925;28;20025;-54
2024/01/18 07:52:19;;;;;;;90.40;43.80;;;;;;;;;;5053868;28;20104;-53
2024/01/18 07:54:45;;;;;;;79.60;40.70;;;;;;;;;;5053557;28;20033;-51
2024/01/18 07:57:12;;;;;;;84.13;39.20;;;;;;;;;;5035815;28;20486;-53
2024/01/18 07:59:38;;;;;;;97.10;43.38;;;;;;;;;;5035774;28;20270;-51
2024/01/18 08:02:05;;;;;;;83.72;39.35;;;;;;;;;;5053494;28;20021;-52
2024/01/18 08:04:31;;;;;;;91.82;43.50;;;;;;;;;;5053368;28;20112;-55
2024/01/18 08:06:57;;;;;;;87.45;43.90;;;;;;;;;;5053587;28;20032;-52
2024/01/18 08:09:23;;;;;;;93.03;43.92;;;;;;;;;;5035586;28;20037;-52
2024/01/18 08:11:50;;;;;;;98.03;47.45;;;;;;;;;;5035462;28;20028;-52
2024/01/18 08:14:16;;;;;;;98.50;47.10;;;;;;;;;;5053224;28;20036;-54
2024/01/18 08:16:44;;;;;;;103.60;48.73;;;;;;;;;;5035632;28;20032;-52
2024/01/18 08:19:10;;;;;;;97.90;49.40;;;;;;;;;;5018909;28;20028;-51
2024/01/18 08:21:43;;;;;;;105.60;47.63;;;;;;;;;;5035251;28;20041;-52
2024/01/18 08:24:09;;;;;;;100.15;51.95;;;;;;;;;;5053038;28;20445;-55
2024/01/18 08:26:35;;;;;;;119.22;55.95;;;;;;;;;;5053163;28;20029;-52
2024/01/18 08:29:01;;;;;;;114.90;55.97;;;;;;;;;;5053168;28;20094;-53
2024/01/18 08:31:28;;;;;;;109.17;49.70;;;;;;;;;;5052994;28;20501;-51
2024/01/18 08:33:54;;;;;;;101.23;46.03;;;;;;;;;;5052847;28;20039;-51
2024/01/18 08:36:20;;;;;;;103.85;50.47;;;;;;;;;;5053123;28;20029;-52
2024/01/18 08:38:46;;;;;;;107.72;51.97;;;;;;;;;;5052884;28;20040;-51
2024/01/18 08:41:12;;;;;;;113.13;53.83;;;;;;;;;;5052550;28;20021;-53
2024/01/18 08:43:39;;;;;;;111.53;49.67;;;;;;;;;;5034758;28;20048;-54
2024/01/18 08:46:08;;;;;;;118.53;50.95;;;;;;;;;;5034888;28;20036;-52
2024/01/18 08:48:35;;;;;;;110.93;53.83;;;;;;;;;;5052836;28;20043;-52
2024/01/18 08:51:12;;;;;;;114.82;60.38;;;;;;;;;;5034651;28;20031;-52
2024/01/18 08:53:40;;;;;;;104.60;44.75;;;;;;;;;;5052456;28;20029;-51
2024/01/18 08:56:06;;;;;;;111.70;53.08;;;;;;;;;;5052360;28;20036;-52
2024/01/18 08:58:33;;;;;;;100.38;49.85;;;;;;;;;;5034424;28;20427;-56
2024/01/18 09:01:00;;;;;;;96.72;47.65;;;;;;;;;;5052824;28;20027;-52
2024/01/18 09:03:27;;;;;;;104.78;47.65;;;;;;;;;;5052326;28;20537;-52
2024/01/18 09:05:53;;;;;;;96.15;46.53;;;;;;;;;;5052432;28;20483;-51
2024/01/18 09:08:19;;;;;;;108.67;53.80;;;;;;;;;;5052442;28;20033;-52
2024/01/18 09:10:46;;;;;;;113.85;51.95;;;;;;;;;;5052380;28;20029;-51
2024/01/18 09:13:12;;;;;;;106.45;55.45;;;;;;;;;;5052213;28;20029;-51
2024/01/18 09:15:38;;;;;;;114.70;58.00;;;;;;;;;;5052053;28;20029;-51
2024/01/18 09:18:04;;;;;;;115.25;53.22;;;;;;;;;;5034409;28;20036;-52
2024/01/18 09:20:31;;;;;;;108.70;51.35;;;;;;;;;;5034349;28;20033;-51
2024/01/18 09:22:57;;;;;;;115.33;54.30;;;;;;;;;;5052054;28;20036;-51
2024/01/18 09:25:23;;;;;;;114.22;53.45;;;;;;;;;;5034113;28;20071;-55
2024/01/18 09:27:49;;;;;;;131.40;62.20;;;;;;;;;;5052098;28;20475;-51
2024/01/18 09:30:16;;;;;;;129.80;55.97;;;;;;;;;;5034180;28;20478;-51
2024/01/18 09:32:42;;;;;;;119.47;54.90;;;;;;;;;;5051926;28;20021;-51
2024/01/18 09:35:08;;;;;;;117.68;52.95;;;;;;;;;;5051609;28;20112;-52
2024/01/18 09:37:36;;;;;;;114.13;52.58;;;;;;;;;;5051501;28;20064;-52
2024/01/18 09:40:02;;;;;;;;;;;;;;;;;;5052155;28;20017;-51
2024/01/18 09:42:33;;;;;;;119.47;54.08;;;;;;;;;;5051645;28;19919;-51
2024/01/18 09:45:09;;;;;;;118.53;53.33;;;;;;;;;;5051687;28;20025;-51
2024/01/18 09:47:36;;;;;;;112.43;50.00;;;;;;;;;;5051713;28;20033;-51
2024/01/18 09:50:03;;;;;;;107.63;50.25;;;;;;;;;;5051779;28;20475;-51
2024/01/18 09:52:29;;;;;;;110.45;53.45;;;;;;;;;;5051779;28;20104;-52
2024/01/18 09:54:55;;;;;;;111.25;53.08;;;;;;;;;;5051432;28;20510;-51
2024/01/18 09:57:30;;;;;;;103.07;52.10;;;;;;;;;;5033757;28;20031;-51
2024/01/18 10:00:00;;;;;;;112.93;53.85;;;;;;;;;;5051494;28;20029;-53
2024/01/18 10:02:26;;;;;;;125.85;53.33;;;;;;;;;;5051578;28;20224;-51
2024/01/18 10:05:00;;;;;;;109.35;52.58;;;;;;;;;;5051289;28;20491;-55
2024/01/18 10:07:29;;;;;;;109.03;49.92;;;;;;;;;;5033786;28;20072;-53
2024/01/18 10:09:55;;;;;;;122.72;55.72;;;;;;;;;;5034133;28;20103;-53
2024/01/18 10:12:21;;;;;;;96.33;46.20;;;;;;;;;;5033728;28;20028;-53
2024/01/18 10:14:48;;;;;;;112.90;52.05;;;;;;;;;;5051667;28;20055;-50
2024/01/18 10:17:25;;;;;;;114.40;52.13;;;;;;;;;;5033571;28;20035;-52
2024/01/18 10:19:55;;;;;;;94.40;46.47;;;;;;;;;;5051459;28;20025;-50
2024/01/18 10:22:21;;;;;;;96.82;46.30;;;;;;;;;;5051724;28;20076;-52
2024/01/18 10:24:48;;;;;;;104.93;47.28;;;;;;;;;;5033302;28;20033;-52
2024/01/18 10:27:14;;;;;;;108.67;49.30;;;;;;;;;;5033653;28;20401;-51
2024/01/18 10:29:40;;;;;;;101.53;47.30;;;;;;;;;;5033584;28;20025;-50
2024/01/18 10:32:06;;;;;;;102.10;44.55;;;;;;;;;;5051462;28;20036;-50
2024/01/18 10:34:37;;;;;;;101.00;43.63;;;;;;;;;;5051019;28;20409;-51
2024/01/18 10:37:04;;;;;;;104.30;45.00;;;;;;;;;;5051256;28;20943;-51
2024/01/18 10:39:39;;;;;;;105.07;48.20;;;;;;;;;;5051225;28;20025;-51
2024/01/18 10:42:09;;;;;;;91.20;43.80;;;;;;;;;;5084766;22;20045;-51
2024/01/18 10:44:39;;;;;;;106.93;46.65;;;;;;;;;;5030861;28;20049;-50
2024/01/18 10:47:13;;;;;;;102.97;48.15;;;;;;;;;;5031799;28;20033;-53
2024/01/18 10:49:42;;;;;;;106.13;44.50;;;;;;;;;;5033751;28;20030;-54
2024/01/18 10:52:09;;;;;;;104.22;46.55;;;;;;;;;;5034134;28;20064;-51
2024/01/18 10:54:36;;;;;;;110.65;47.03;;;;;;;;;;5033487;28;20037;-52
2024/01/18 10:57:03;;;;;;;111.82;46.45;;;;;;;;;;5033904;28;20040;-53
2024/01/18 10:59:29;;;;;;;103.45;48.58;;;;;;;;;;5035390;28;20455;-50
2024/01/18 11:02:00;;;;;;;97.43;44.30;;;;;;;;;;5034823;28;20387;-52
2024/01/18 11:04:30;;;;;;;103.18;48.33;;;;;;;;;;5034629;28;20030;-52
2024/01/18 11:06:58;;;;;;;106.05;46.35;;;;;;;;;;5034787;28;20040;-55
2024/01/18 11:09:30;;;;;;;100.15;44.10;;;;;;;;;;5034749;28;20079;-52
2024/01/18 11:11:57;;;;;;;104.45;49.35;;;;;;;;;;5034568;28;20079;-50
2024/01/18 11:14:23;;;;;;;105.25;46.78;;;;;;;;;;5033351;28;20053;-50
2024/01/18 11:16:50;;;;;;;97.78;48.47;;;;;;;;;;5034615;28;20026;-51
2024/01/18 11:19:34;;;;;;;111.65;53.60;;;;;;;;;;5047524;28;20040;-52
2024/01/18 11:22:01;;;;;;;92.35;43.38;;;;;;;;;;5033330;28;20021;-52
2024/01/18 11:24:27;;;;;;;92.35;42.63;;;;;;;;;;5033213;28;20530;-54
2024/01/18 11:26:57;;;;;;;99.23;46.20;;;;;;;;;;5033217;28;20057;-53
2024/01/18 11:29:26;;;;;;;102.93;45.17;;;;;;;;;;5033515;28;20120;-53
2024/01/18 11:31:53;;;;;;;101.80;45.13;;;;;;;;;;5034014;28;20044;-51
2024/01/18 11:34:40;;;;;;;93.63;44.80;;;;;;;;;;5037769;28;20064;-51
2024/01/18 11:37:13;;;;;;;101.63;48.95;;;;;;;;;;5031746;28;20021;-54
2024/01/18 11:39:48;;;;;;;102.22;45.88;;;;;;;;;;5032184;28;20025;-52
2024/01/18 11:42:18;;;;;;;93.72;44.08;;;;;;;;;;5030836;28;20048;-53
2024/01/18 11:44:50;;;;;;;87.82;43.90;;;;;;;;;;5037385;28;20032;-50
2024/01/18 11:47:20;;;;;;;95.55;43.25;;;;;;;;;;5029905;28;20034;-49
2024/01/18 11:49:47;;;;;;;84.25;41.03;;;;;;;;;;5044582;28;20047;-49
2024/01/18 11:52:13;;;;;;;91.50;44.42;;;;;;;;;;5050338;28;20514;-51
2024/01/18 11:54:43;;;;;;;92.25;46.20;;;;;;;;;;5034981;28;20030;-51
2024/01/18 11:57:14;;;;;;;99.25;48.60;;;;;;;;;;5047188;28;20036;-51
2024/01/18 11:59:47;;;;;;;92.10;43.35;;;;;;;;;;5033165;28;20738;-50
2024/01/18 12:02:13;;;;;;;85.50;40.45;;;;;;;;;;5049452;28;20121;-50
2024/01/18 12:04:40;;;;;;;95.45;45.78;;;;;;;;;;5040162;28;20510;-49
2024/01/18 12:07:07;;;;;;;90.07;43.67;;;;;;;;;;5031820;28;20040;-54
2024/01/18 12:09:33;;;;;;;85.25;39.63;;;;;;;;;;5033982;28;20400;-49
2024/01/18 12:12:00;;;;;;;85.05;44.08;;;;;;;;;;5041696;28;20465;-51
2024/01/18 12:14:27;;;;;;;84.43;40.70;;;;;;;;;;5038652;28;20034;-52
2024/01/18 12:16:53;;;;;;;76.00;40.70;;;;;;;;;;5036670;28;20071;-50
2024/01/18 12:19:32;;;;;;;84.28;41.03;;;;;;;;;;5019474;28;20484;-53
2024/01/18 12:22:05;;;;;;;90.50;44.17;;;;;;;;;;5023649;28;20083;-51
2024/01/18 12:24:32;;;;;;;77.30;38.15;;;;;;;;;;5047027;28;20368;-51
2024/01/18 12:26:58;;;;;;;73.57;38.92;;;;;;;;;;5049600;28;20037;-50
2024/01/18 12:29:25;;;;;;;87.28;44.47;;;;;;;;;;5048282;28;20033;-50
2024/01/18 12:31:51;;;;;;;80.32;41.30;;;;;;;;;;5044343;28;20079;-51
2024/01/18 12:34:21;;;;;;;87.45;45.67;;;;;;;;;;5051088;28;20044;-52
2024/01/18 12:36:47;;;;;;;88.38;44.17;;;;;;;;;;5051029;28;20064;-49
2024/01/18 12:39:14;;;;;;;85.03;42.72;;;;;;;;;;5051165;28;20060;-51
2024/01/18 12:41:40;;;;;;;77.90;42.45;;;;;;;;;;5043617;28;20044;-49
2024/01/18 12:44:11;;;;;;;80.03;45.63;;;;;;;;;;5050942;28;20025;-50
2024/01/18 12:46:38;;;;;;;82.78;45.65;;;;;;;;;;5045687;28;20259;-50
2024/01/18 12:49:05;;;;;;;83.70;46.13;;;;;;;;;;5051282;28;20536;-51
2024/01/18 12:51:32;;;;;;;73.13;44.17;;;;;;;;;;5048927;28;20278;-50
2024/01/18 12:53:59;;;;;;;;;;;;;;;;;;5032778;28;20029;-51
2024/01/18 12:56:25;;;;;;;73.50;43.22;;;;;;;;;;5031416;28;19920;-51
2024/01/18 12:58:51;;;;;;;76.20;42.55;;;;;;;;;;5031217;28;20025;-50
2024/01/18 13:01:30;;;;;;;72.72;41.50;;;;;;;;;;5033720;28;20591;-52
2024/01/18 13:04:18;;;;;;;67.63;42.53;;;;;;;;;;5048879;28;20119;-51
2024/01/18 13:06:45;;;;;;;71.25;42.30;;;;;;;;;;5040028;28;20033;-51
2024/01/18 13:09:11;;;;;;;;;;;;;;;;;;5031645;28;20486;-50
2024/01/18 13:11:38;;;;;;;68.25;42.00;;;;;;;;;;5030144;28;19913;-54
2024/01/18 13:14:05;;;;;;;66.95;40.60;;;;;;;;;;5049118;28;20021;-52
2024/01/18 13:16:32;;;;;;;56.78;38.70;;;;;;;;;;5043587;28;20474;-49
2024/01/18 13:19:01;;;;;;;67.67;42.07;;;;;;;;;;5049311;28;20055;-50
2024/01/18 13:21:28;;;;;;;64.30;39.97;;;;;;;;;;5050566;28;20384;-49
2024/01/18 13:23:55;;;;;;;64.00;42.00;;;;;;;;;;5048830;28;20028;-50
2024/01/18 13:26:21;;;;;;;62.30;40.80;;;;;;;;;;5042575;28;20036;-50
2024/01/18 13:28:47;;;;;;;64.43;39.97;;;;;;;;;;5029302;28;20090;-53
2024/01/18 13:31:14;;;;;;;67.68;41.80;;;;;;;;;;5032850;28;20274;-50
2024/01/18 13:33:40;;;;;;;63.20;40.92;;;;;;;;;;5031291;28;20030;-53
2024/01/18 13:36:08;;;;;;;63.28;40.75;;;;;;;;;;5030251;28;20029;-51
2024/01/18 13:38:35;;;;;;;62.17;38.28;;;;;;;;;;5035373;28;20527;-53
2024/01/18 13:41:01;;;;;;;58.40;35.78;;;;;;;;;;5031491;28;20056;-51
2024/01/18 13:43:27;;;;;;;54.40;36.47;;;;;;;;;;5031622;28;20530;-50
2024/01/18 13:45:55;;;;;;;56.60;35.93;;;;;;;;;;5036358;28;20051;-53
2024/01/18 13:48:21;;;;;;;57.65;36.38;;;;;;;;;;5031225;28;20034;-52
2024/01/18 13:50:48;;;;;;;53.08;36.15;;;;;;;;;;5041971;28;20033;-52
2024/01/18 13:53:16;;;;;;;58.70;38.45;;;;;;;;;;5050356;28;20024;-50
2024/01/18 13:55:43;;;;;;;57.60;35.97;;;;;;;;;;5051288;28;20441;-53
2024/01/18 13:58:10;;;;;;;56.45;37.33;;;;;;;;;;5051484;28;20021;-52
2024/01/18 14:00:36;;;;;;;60.72;41.20;;;;;;;;;;5051726;28;20028;-52
2024/01/18 14:03:03;;;;;;;59.17;40.47;;;;;;;;;;5051451;28;20013;-52
2024/01/18 14:05:31;;;;;;;64.03;41.05;;;;;;;;;;5050139;28;20025;-54
2024/01/18 14:07:57;;;;;;;56.20;38.78;;;;;;;;;;5050252;28;20056;-54
2024/01/18 14:10:24;;;;;;;59.83;39.22;;;;;;;;;;5050319;28;20033;-52
2024/01/18 14:12:50;;;;;;;58.50;40.72;;;;;;;;;;5051380;28;20479;-49
2024/01/18 14:15:16;;;;;;;57.50;40.00;;;;;;;;;;5049403;28;20040;-51